Cactus Peak, Santa Catalina Island Weather observations

Data are for 10 minute period ending at time listed.
 Day   Time   Solar   Ave.   Ave.  Ave.  Vector    Max.   Stn.    Total
  of    of     Rad.   Air    Rel.  Wind   Wind     Wind   Baro.  Precip.
Year   Day            Temp.  Hum.  Speed  Dir.     Gust   Pres.         
2026   (PST)   W/m2    F      %     mph   deg.      mph    mb.     in.  
------------------------------------------------------------------------
 122   18:10   42.0    54   84.0     1    355.9     0.6    999.0   0.00  
 122   18:20   35.0    54   87.5     6      7.8     9.0    999.0   0.00  
 122   18:30   22.0    54   94.6     8      6.6     9.6    999.0   0.00  
 122   18:40    9.0    53   99.9     8      2.9    10.8    999.0   0.00  
 122   18:50    3.0    53   99.9     9    353.1    11.3    999.0   0.00  
 122   19:00    0.0    53   99.9     8    351.5    10.2    999.0   0.00  
 122   19:10    0.0    53   99.9     8    339.1    10.8    999.0   0.00  
 122   19:20    0.0    53   99.9     9    335.0    12.5    999.0   0.00  
 122   19:30    0.0    53   99.9     8    337.1    11.3    999.0   0.00  
 122   19:40    0.0    53   99.9     9    329.0    13.1    999.0   0.00  
 122   19:50    0.0    53   99.9    10    326.5    15.5    999.0   0.00  
 122   20:00    0.0    53   99.9     9    331.6    12.5    999.0   0.00  
 122   20:10    0.0    53   99.9     9    323.3    13.1    999.0   0.00  
 122   20:20    0.0    53   99.9     9    326.6    13.1    999.0   0.00  
 122   20:30    0.0    53   99.9    10    315.2    14.3    999.0   0.00  
 122   20:40    0.0    53   99.9    10    324.5    14.3    999.0   0.00  
 122   20:50    0.0    53   99.9    10    319.1    14.9    999.0   0.00  
 122   21:00    0.0    53   99.9    10    322.3    14.9    999.0   0.00  
 122   21:10    0.0    53   99.9    11    322.8    15.5    999.0   0.00  
 122   21:20    0.0    52   99.9    11    347.9    16.1    999.0   0.00  
 122   21:30    0.0    52   99.9    10    331.5    16.7    999.0   0.00  
 122   21:40    0.0    52   99.9    10    328.3    14.3    999.0   0.00  
 122   21:50    0.0    52   99.9     9    319.2    11.9    999.0   0.00  
 122   22:00    0.0    52   99.9     9    320.6    13.1    999.0   0.00  
 122   22:10    0.0    52   99.9     9    321.1    12.5    999.0   0.00  
 122   22:20    0.0    52   99.9     9    314.1    14.3    999.0   0.00  
 122   22:30    0.0    52   99.9     9    312.8    13.1    999.0   0.00  
 122   22:40    0.0    52   99.9     8    312.3    13.1    999.0   0.00  
 122   22:50    0.0    52   99.9     7    303.5    11.3    999.0   0.00  
 122   23:00    0.0    52   99.9     6    297.6     9.6    999.0   0.00  
 122   23:10    0.0    52   99.9     6    293.0    10.2    999.0   0.00  
 122   23:20    0.0    52   99.9     6    292.4     9.6    999.0   0.00  
 122   23:30    0.0    52   99.9     6    293.5     9.6    999.0   0.00  
 122   23:40    0.0    53   99.2     6    266.0    11.9    999.0   0.00  
 122   23:50    0.0    53   97.9     6    293.3    10.8    999.0   0.00  
 123    0:00    0.0    52   99.4     7    286.4    11.9    999.0   0.00  
 123    0:10    0.0    53   94.7     6    275.0    12.5    999.0   0.00  
 123    0:20    0.0    52   91.9     8    283.6    11.3    999.0   0.00  
 123    0:30    0.0    53   89.5     7    280.9    12.5    999.0   0.00  
 123    0:40    0.0    52   98.9     7    282.6    10.2    999.0   0.00  
 123    0:50    0.0    52   99.9     7    292.7    10.8    999.0   0.00  
 123    1:00    0.0    52   99.9     6    305.5    10.8    999.0   0.00  
 123    1:10    0.0    52   96.7     8    300.0    12.5    999.0   0.00  
 123    1:20    0.0    52   88.2     8    303.5    11.9    999.0   0.00  
 123    1:30    0.0    52   87.7     7    316.9    11.3    999.0   0.00  
 123    1:40    0.0    52   87.6     8    303.4    11.9    999.0   0.00  
 123    1:50    0.0    52   86.5     6    305.1    13.1    999.0   0.00  
 123    2:00    0.0    52   85.3     7    279.0    11.9    999.0   0.00  
 123    2:10    0.0    52   82.4     7    285.5    10.2    999.0   0.00  
 123    2:20    0.0    52   82.4     5    273.5     7.2    999.0   0.00  
 123    2:30    0.0    52   84.1     5    275.2     8.4    999.0   0.00  
 123    2:40    0.0    52   86.5     4    271.0     7.2    999.0   0.00  
 123    2:50    0.0    52   86.6     5    286.0     7.2    999.0   0.00  
 123    3:00    0.0    52   86.8     4    282.3     7.2    999.0   0.00  
 123    3:10    0.0    52   86.9     5    300.4     7.8    999.0   0.00  
 123    3:20    0.0    52   91.1     5    314.5     9.0    999.0   0.00  
 123    3:30    0.0    52   99.8     8    328.3    11.3    999.0   0.00  
 123    3:40    0.0    52   90.2     9    325.9    13.1    999.0   0.00  
 123    3:50    0.0    52   86.4     8    330.8    10.8    999.0   0.00  
 123    4:00    0.0    52   86.1     6    325.4     9.0    999.0   0.00  
 123    4:10    0.0    52   85.8     6    315.4     9.6    999.0   0.00  
 123    4:20    0.0    52   85.7     4    320.8     7.8    999.0   0.00  
 123    4:30    0.0    52   85.5     4    323.6     6.6    999.0   0.00  
 123    4:40    0.0    52   85.6     3    304.0     5.4    999.0   0.00  
 123    4:50    0.0    51   86.5     4    299.5     6.0    999.0   0.00  
 123    5:00    0.0    51   88.6     5    301.4     6.6    999.0   0.00  
 123    5:10    5.0    51   98.4     4    303.4     6.0    999.0   0.00  
 123    5:20   12.0    51   99.9     4    305.6     5.4    999.0   0.00  
 123    5:30   31.0    51   98.7     4    289.2     6.6    999.0   0.00  
 123    5:40   52.0    52   84.7     4    296.5     5.4    999.0   0.00  
 123    5:50   80.0    52   82.7     3    291.4     6.0    999.0   0.00  
 123    6:00  107.0    53   80.8     3    290.6     4.2    999.0   0.00  
 123    6:10  137.0    54   79.7     1    297.6     3.6    999.0   0.00  
 123    6:20  175.0    55   75.2     2    307.7     3.6    999.0   0.00  
 123    6:30  208.0    56   72.3     1    265.9     4.2    999.0   0.00  
 123    6:40  130.0    55   73.0     2    250.2     4.2    999.0   0.00  
 123    6:50  154.0    54   74.7     2    216.5     3.6    999.0   0.00  
 123    7:00  299.0    55   71.8     2    197.6     6.6    999.0   0.00  
 123    7:10  334.0    56   69.6     6    213.9     9.6    999.0   0.00  
 123    7:20  370.0    56   68.9     4    212.3     9.6    999.0   0.00  
 123    7:30  420.0    56   65.5     5    218.5     9.0    999.0   0.00  
 123    7:40  297.0    57   63.6     4    256.2    10.8    999.0   0.00  
 123    7:50  194.0    56   65.8     5    252.4    10.8    999.0   0.00  
 123    8:00  232.0    56   65.6     5    287.3    10.2    999.0   0.00  
 123    8:10  208.0    56   64.6     4    310.1     7.8    999.0   0.00  
 123    8:20  198.0    57   62.1     4    300.2     8.4    999.0   0.00  
 123    8:30  275.0    56   61.1     6    256.7     9.6    999.0   0.00  
 123    8:40  316.0    57   60.6     4    276.7    10.2    999.0   0.00  
 123    8:50  265.0    57   60.2     6    251.4    11.3    999.0   0.00  
 123    9:00  309.0    57   60.4     8    217.6    12.5    999.0   0.00  
 123    9:10  321.0    57   61.6     5    235.0    10.2    999.0   0.00  
 123    9:20  301.0    57   58.8     7    256.7    10.2    999.0   0.00  
 123    9:30  273.0    57   58.0     6    258.5    10.2    999.0   0.00  
 123    9:40  387.0    57   56.7     6    278.1    11.3    999.0   0.00  
 123    9:50  457.0    58   54.8     6    308.1    11.9    999.0   0.00  
 123   10:00  360.0    58   56.4     8    346.8    11.9    999.0   0.00  
 123   10:10  787.0    59   55.7     7      6.2    13.1    999.0   0.00  
 123   10:20  294.0    60   55.2     4    271.1    11.3    999.0   0.00  
 123   10:30  348.0    59   58.0     5    232.6    11.3    999.0   0.00  
 123   10:40  354.0    59   58.6     4    261.9    10.2    999.0   0.00  
 123   10:50  470.0    60   57.1     5    297.2     9.6    999.0   0.00  
 123   11:00  450.0    60   57.5     8    226.7    14.3    999.0   0.00  
 123   11:10  440.0    59   60.1    10    217.5    16.7    999.0   0.00  
 123   11:20  445.0    59   59.8     9    217.8    14.9    999.0   0.00  
 123   11:30  582.0    59   58.7    11    221.5    16.7    999.0   0.00  
 123   11:40  582.0    59   58.7    11    221.9    15.5    999.0   0.00  
 123   11:50  495.0    58   59.9     9    223.7    14.9    999.0   0.00  
 123   12:00  536.0    58   59.0    11    219.3    14.9    999.0   0.00  
 123   12:10  510.0    58   56.5    11    229.9    16.1    999.0   0.00  
 123   12:20  513.0    58   59.5     8    238.5    14.3    999.0   0.00  
 123   12:30  553.0    58   58.5     8    224.1    16.1    999.0   0.00  
 123   12:40  585.0    59   59.1     8    216.5    14.3    999.0   0.00  
 123   12:50  647.0    60   58.7     8    233.5    15.5    999.0   0.00  
 123   13:00  683.0    60   58.0     9    216.7    14.9    999.0   0.00  
 123   13:10  749.0    59   61.2    12    216.5    19.1    999.0   0.00  
 123   13:20  598.0    58   62.0    11    220.2    16.7    999.0   0.00  
 123   13:30  582.0    59   61.0     9    214.4    15.5    999.0   0.00  
 123   13:40  505.0    59   62.6    10    228.9    14.9    999.0   0.00  
 123   13:50  465.0    59   62.8     8    227.6    11.9    999.0   0.00  
 123   14:00  429.0    59   62.7     8    237.8    16.1    999.0   0.00  
 123   14:10  419.0    58   68.5     9    237.2    13.1    999.0   0.00  
 123   14:20  391.0    58   66.4     7    270.4    11.3    999.0   0.00  
 123   14:30  311.0    57   72.4     8    264.0    13.1    999.0   0.00  
 123   14:40  243.0    57   74.8     7    253.8    13.1    999.0   0.00  
 123   14:50  243.0    56   74.7     8    243.6    11.9    999.0   0.00  
 123   15:00  305.0    56   73.0     6    237.7    10.2    999.0   0.00  
 123   15:10  493.0    57   67.5     7    250.3    11.3    999.0   0.00  
 123   15:20  520.0    58   62.7     7    263.4    10.8    999.0   0.00  
 123   15:30  341.0    58   65.2     7    256.5    10.8    999.0   0.00  
 123   15:40  319.0    57   67.0     7    248.1    10.8    999.0   0.00  
 123   15:50  291.0    57   67.8     7    263.8    11.9    999.0   0.00  
 123   16:00  217.0    57   70.0     7    256.5    11.9    999.0   0.00  
 123   16:10  183.0    56   73.7     8    243.0    11.3    999.0   0.00  
 123   16:20  187.0    56   71.0     6    254.3     9.6    999.0   0.00  
 123   16:30  179.0    56   70.6     7    254.8    10.8    999.0   0.00  
 123   16:40  126.0    56   69.6     6    284.8     9.0    999.0   0.00  
 123   16:50  115.0    56   69.2     6    304.4     9.0    999.0   0.00  
 123   17:00   93.0    56   71.6     6    313.2     9.0    999.0   0.00  
 123   17:10   64.0    56   70.4     7    310.6    10.2    999.0   0.00  
 123   17:20   90.0    55   71.1     4    306.0     9.6    999.0   0.00  
 123   17:30   55.0    55   70.2     5    305.2    10.8    999.0   0.00  
 123   17:40   45.0    55   71.8     6    281.4     8.4    999.0   0.00  
 123   17:50   35.0    55   71.2     6    245.2     9.0    999.0   0.00  
 123   18:00   32.0    54   76.1     7    245.5     9.6    999.0   0.00  

Return to Cactus Peak graphs page.


Western Regional Climate Center,wrcc@dri.edu